createdAt,value
2024-03-19T00:14:16.594Z,3.2
2024-03-19T00:29:59.348Z,3.2
2024-03-19T00:45:41.970Z,3.2
2024-03-19T01:01:24.919Z,3.2
2024-03-19T01:17:07.445Z,3.207
2024-03-19T01:32:50.519Z,3.2
2024-03-19T01:48:33.541Z,3.203
2024-03-19T02:04:16.301Z,3.203
2024-03-19T02:19:59.140Z,3.2
2024-03-19T02:35:42.081Z,3.2
2024-03-19T02:51:24.630Z,3.2
2024-03-19T03:07:07.442Z,3.2
2024-03-19T03:22:50.329Z,3.2
2024-03-19T03:38:33.462Z,3.205
2024-03-19T03:54:16.324Z,3.203
2024-03-19T04:09:59.465Z,3.203
2024-03-19T04:25:42.097Z,3.202
2024-03-19T04:41:24.740Z,3.2
2024-03-19T04:57:07.472Z,3.199
2024-03-19T05:12:49.959Z,3.196
2024-03-19T05:28:32.542Z,3.2
2024-03-19T05:44:15.232Z,3.2
2024-03-19T05:59:57.842Z,3.199
2024-03-19T06:15:40.935Z,3.199
2024-03-19T06:31:23.426Z,3.202
2024-03-19T06:47:05.930Z,3.202
2024-03-19T07:02:49.258Z,3.202
2024-03-19T07:18:31.377Z,3.199
2024-03-19T07:34:14.133Z,3.2
2024-03-19T07:49:57.656Z,3.202
2024-03-19T08:05:40.005Z,3.202
2024-03-19T08:21:22.871Z,3.2
2024-03-19T08:37:05.748Z,3.263
2024-03-19T08:52:48.303Z,3.29
2024-03-19T09:08:30.451Z,3.397
2024-03-19T09:24:12.348Z,3.34
2024-03-19T09:39:54.519Z,3.308
2024-03-19T09:55:36.505Z,3.296
2024-03-19T10:11:19.600Z,3.285
2024-03-19T10:27:01.851Z,3.278
2024-03-19T10:42:44.518Z,3.268
2024-03-19T10:58:26.836Z,3.263
2024-03-19T11:14:08.801Z,3.26
2024-03-19T11:29:51.291Z,3.254
2024-03-19T11:45:33.324Z,3.25
2024-03-19T12:01:15.377Z,3.437
2024-03-19T12:16:57.852Z,3.408
2024-03-19T12:32:39.752Z,3.389
2024-03-19T12:48:22.072Z,3.371
2024-03-19T13:04:04.472Z,3.359
2024-03-19T13:19:46.909Z,3.347
2024-03-19T13:35:29.116Z,3.333
2024-03-19T13:51:11.749Z,3.314
2024-03-19T14:06:54.438Z,3.303
2024-03-19T14:22:36.382Z,3.293
2024-03-19T14:38:19.297Z,3.285
2024-03-19T14:54:01.778Z,3.279
2024-03-19T15:09:44.363Z,3.27
2024-03-19T15:10:31.517Z,3.261
2024-03-19T15:26:14.079Z,3.259
2024-03-19T15:41:56.538Z,3.254
2024-03-19T15:57:39.321Z,3.249
2024-03-19T16:13:22.269Z,3.243
2024-03-19T16:29:04.880Z,3.241
2024-03-19T16:44:47.605Z,3.238
2024-03-19T17:00:30.023Z,3.232
2024-03-19T17:16:12.647Z,3.229
2024-03-19T17:31:55.569Z,3.229
2024-03-19T17:47:37.867Z,3.22
2024-03-19T18:03:20.611Z,3.218
2024-03-19T18:19:03.165Z,3.216
2024-03-19T18:34:45.946Z,3.213
2024-03-19T18:50:28.714Z,3.212
2024-03-19T19:06:10.974Z,3.21
2024-03-19T19:21:53.781Z,3.21
2024-03-19T19:37:36.078Z,3.207
2024-03-19T19:53:19.110Z,3.207
2024-03-19T20:09:01.987Z,3.206
2024-03-19T20:24:45.047Z,3.206
2024-03-19T20:40:27.739Z,3.205
2024-03-19T20:56:10.217Z,3.207
2024-03-19T21:11:52.962Z,3.205
2024-03-19T21:27:35.302Z,3.205
2024-03-19T21:43:18.480Z,3.206
2024-03-19T21:59:01.226Z,3.206
2024-03-19T22:14:44.045Z,3.206
2024-03-19T22:30:26.189Z,3.202
2024-03-19T22:46:09.054Z,3.205
2024-03-19T23:01:51.876Z,3.205
2024-03-19T23:17:34.987Z,3.205
2024-03-19T23:33:17.905Z,3.203
2024-03-19T23:49:00.798Z,3.203
